Time;durP1;ratioP1;P1;durP2;ratioP2;P2;SDS_P1;SDS_P2;PMS_P1;PMS_P2;Temp;Humidity;BMP_temperature;BMP_pressure;BME280_temperature;BME280_humidity;BME280_pressure;Samples;Min_cycle;Max_cycle;Signal;HPM_P1;HPM_P2
2021/01/04 00:02:59;;;;;;;4.07;1.92;;;4.10;99.90;;;;;;10367949;28;20095;-52
2021/01/04 00:08:38;;;;;;;2.33;1.33;;;4.10;99.90;;;;;;10364380;28;20049;-52
2021/01/04 00:14:18;;;;;;;3.83;0.90;;;4.20;99.90;;;;;;10367557;28;20052;-53
2021/01/04 00:20:10;;;;;;;5.15;1.33;;;4.20;99.90;;;;;;10378626;28;20041;-52
2021/01/04 00:25:43;;;;;;;7.95;1.50;;;4.20;99.90;;;;;;10368222;28;20042;-52
2021/01/04 00:31:29;;;;;;;6.90;1.48;;;4.20;99.90;;;;;;10369580;28;20056;-52
2021/01/04 00:37:21;;;;;;;4.32;1.30;;;4.20;99.90;;;;;;10374202;28;20393;-52
2021/01/04 00:42:46;;;;;;;2.47;0.65;;;4.20;99.90;;;;;;10368282;28;20200;-52
2021/01/04 00:48:25;;;;;;;3.50;1.20;;;4.30;99.90;;;;;;10368037;28;20046;-52
2021/01/04 00:53:49;;;;;;;3.95;0.90;;;4.30;99.90;;;;;;10368168;28;20614;-52
2021/01/04 00:59:30;;;;;;;2.35;1.52;;;4.30;99.90;;;;;;10367320;28;20539;-52
2021/01/04 01:05:01;;;;;;;3.78;1.05;;;4.20;99.90;;;;;;10369753;28;20080;-52
2021/01/04 01:10:24;;;;;;;3.50;1.48;;;4.20;99.90;;;;;;10379648;28;20172;-52
2021/01/04 01:16:06;;;;;;;3.58;1.02;;;4.10;99.90;;;;;;10364926;28;20390;-52
2021/01/04 01:21:28;;;;;;;3.28;1.23;;;4.10;99.90;;;;;;10369108;28;20054;-52
2021/01/04 01:27:04;;;;;;;2.58;1.05;;;4.10;99.90;;;;;;10365966;28;20456;-52
2021/01/04 01:32:41;;;;;;;3.05;0.90;;;4.00;99.90;;;;;;10366368;28;20045;-52
2021/01/04 01:38:21;;;;;;;2.75;1.52;;;4.00;99.90;;;;;;10364759;28;20045;-52
2021/01/04 01:43:55;;;;;;;3.97;1.33;;;4.00;99.90;;;;;;10368272;28;20157;-53
2021/01/04 01:49:42;;;;;;;4.07;1.10;;;4.00;99.90;;;;;;10363527;28;20041;-53
2021/01/04 01:55:26;;;;;;;1.75;0.82;;;4.00;99.90;;;;;;10361441;28;20045;-53
2021/01/04 02:01:01;;;;;;;4.13;1.45;;;3.90;99.90;;;;;;10363840;28;20045;-53
2021/01/04 02:06:32;;;;;;;5.13;1.38;;;3.90;99.90;;;;;;10365479;28;20049;-53
2021/01/04 02:12:09;;;;;;;2.50;1.00;;;3.80;99.90;;;;;;10363756;28;20042;-53
2021/01/04 02:17:49;;;;;;;2.90;1.05;;;3.80;99.90;;;;;;10359131;28;20061;-53
2021/01/04 02:23:35;;;;;;;3.15;0.82;;;3.80;99.90;;;;;;10357882;28;20467;-53
2021/01/04 02:29:09;;;;;;;1.83;0.75;;;3.80;99.90;;;;;;10359774;28;20049;-53
2021/01/04 02:34:39;;;;;;;3.50;1.42;;;3.80;99.90;;;;;;10362052;28;20026;-53
2021/01/04 02:40:10;;;;;;;3.35;1.13;;;3.90;99.90;;;;;;10365991;28;20037;-53
2021/01/04 02:45:32;;;;;;;2.00;0.80;;;4.00;99.90;;;;;;10364681;28;20464;-53
2021/01/04 02:51:20;;;;;;;1.92;1.15;;;4.00;99.90;;;;;;10366268;28;20465;-53
2021/01/04 02:56:54;;;;;;;5.85;1.25;;;3.90;99.90;;;;;;10367084;28;20075;-53
2021/01/04 03:02:36;;;;;;;1.70;0.75;;;3.90;99.90;;;;;;10364484;28;20084;-53
2021/01/04 03:08:03;;;;;;;2.72;1.10;;;3.90;99.90;;;;;;10366614;28;20464;-56
2021/01/04 03:13:39;;;;;;;2.50;0.68;;;3.90;99.90;;;;;;10362833;28;20461;-53
2021/01/04 03:19:12;;;;;;;1.77;0.90;;;4.00;99.90;;;;;;10365188;28;20045;-53
2021/01/04 03:24:33;;;;;;;2.55;0.77;;;4.00;99.90;;;;;;10366094;28;20048;-53
2021/01/04 03:29:54;;;;;;;3.88;1.42;;;4.00;99.90;;;;;;10363951;28;20065;-53
2021/01/04 03:35:15;;;;;;;3.35;1.45;;;3.90;99.90;;;;;;10367148;28;20037;-53
2021/01/04 03:40:36;;;;;;;3.88;1.90;;;3.90;99.90;;;;;;10372359;28;20585;-53
2021/01/04 03:45:57;;;;;;;6.03;1.17;;;3.90;99.90;;;;;;10373442;28;20062;-53
2021/01/04 03:51:18;;;;;;;1.95;0.85;;;3.90;99.90;;;;;;10373521;28;20067;-53
2021/01/04 03:56:39;;;;;;;4.47;1.58;;;3.90;99.90;;;;;;10370476;28;20029;-53
2021/01/04 04:02:00;;;;;;;6.47;1.52;;;4.00;99.90;;;;;;10371427;28;20041;-53
2021/01/04 04:07:21;;;;;;;3.28;1.38;;;3.90;99.90;;;;;;10371490;28;20037;-53
2021/01/04 04:12:42;;;;;;;6.57;1.73;;;3.90;99.90;;;;;;10370598;28;20072;-53
2021/01/04 04:18:03;;;;;;;2.38;0.68;;;3.90;99.90;;;;;;10368612;28;20045;-53
2021/01/04 04:23:24;;;;;;;5.85;2.20;;;3.90;99.90;;;;;;10369128;28;20100;-53
2021/01/04 04:28:45;;;;;;;5.30;1.92;;;3.90;99.90;;;;;;10367960;28;20056;-52
2021/01/04 04:34:06;;;;;;;2.80;1.40;;;3.90;99.90;;;;;;10365946;28;20048;-52
2021/01/04 04:39:27;;;;;;;4.20;2.10;;;4.00;99.90;;;;;;10365067;28;20192;-53
2021/01/04 04:45:03;;;;;;;4.18;1.45;;;3.90;99.90;;;;;;10366980;28;20495;-53
2021/01/04 04:50:45;;;;;;;4.18;1.67;;;3.90;99.90;;;;;;10366838;28;20374;-53
2021/01/04 04:56:23;;;;;;;3.55;0.90;;;3.90;99.90;;;;;;10366075;28;20044;-52
2021/01/04 05:02:07;;;;;;;2.83;1.20;;;3.80;99.90;;;;;;10384585;28;21597;-53
2021/01/04 05:07:33;;;;;;;2.95;1.38;;;3.90;99.90;;;;;;10370583;28;20091;-52
2021/01/04 05:13:13;;;;;;;2.03;1.00;;;4.00;99.90;;;;;;10384982;28;20157;-53
2021/01/04 05:18:52;;;;;;;1.92;0.90;;;3.90;99.90;;;;;;10369183;28;20045;-53
2021/01/04 05:24:45;;;;;;;5.68;0.98;;;3.90;99.90;;;;;;10366538;28;20030;-53
2021/01/04 05:30:28;;;;;;;3.38;1.55;;;3.90;99.90;;;;;;10368245;28;21035;-52
2021/01/04 05:35:54;;;;;;;3.35;1.05;;;3.80;99.90;;;;;;10370400;28;20075;-53
2021/01/04 05:41:33;;;;;;;4.43;1.20;;;3.90;99.90;;;;;;10365378;28;20887;-53
2021/01/04 05:47:22;;;;;;;5.93;1.52;;;3.90;99.90;;;;;;10373973;28;20046;-53
2021/01/04 05:52:45;;;;;;;3.45;1.48;;;3.90;99.90;;;;;;10366747;28;20540;-52
2021/01/04 05:58:16;;;;;;;2.80;0.93;;;3.90;99.90;;;;;;10361506;28;20052;-53
2021/01/04 06:03:37;;;;;;;3.67;1.25;;;4.00;99.90;;;;;;10377631;28;20029;-52
2021/01/04 06:09:05;;;;;;;2.88;1.10;;;4.00;99.90;;;;;;10362306;28;20486;-53
2021/01/04 06:14:29;;;;;;;3.08;1.67;;;4.00;99.90;;;;;;10364158;28;20128;-53
2021/01/04 06:19:51;;;;;;;2.97;1.27;;;3.90;99.90;;;;;;10363694;28;20142;-53
2021/01/04 06:25:14;;;;;;;2.58;0.63;;;3.90;99.90;;;;;;10371707;28;20046;-53
2021/01/04 06:30:38;;;;;;;5.72;1.73;;;3.90;99.90;;;;;;10361876;28;20444;-53
2021/01/04 06:36:16;;;;;;;3.10;1.08;;;4.00;99.90;;;;;;10363810;28;20481;-52
2021/01/04 06:41:38;;;;;;;5.43;0.70;;;4.00;99.90;;;;;;10365099;28;20128;-53
2021/01/04 06:47:18;;;;;;;2.53;1.08;;;4.10;99.90;;;;;;10360111;28;20091;-53
2021/01/04 06:52:58;;;;;;;2.67;0.88;;;4.10;99.90;;;;;;10362093;28;20045;-53
2021/01/04 06:58:30;;;;;;;4.57;0.90;;;4.00;99.90;;;;;;10357989;28;20521;-53
2021/01/04 07:04:00;;;;;;;2.90;1.00;;;4.00;99.90;;;;;;10362746;28;20100;-53
2021/01/04 07:09:52;;;;;;;2.40;1.40;;;3.90;99.90;;;;;;10362075;28;20064;-53
2021/01/04 07:15:29;;;;;;;1.80;0.68;;;4.00;99.90;;;;;;10366995;28;20060;-53
2021/01/04 07:21:27;;;;;;;3.92;0.60;;;4.00;99.90;;;;;;10365209;28;20038;-53
2021/01/04 07:27:04;;;;;;;4.30;1.58;;;4.00;99.90;;;;;;10367545;28;20155;-53
2021/01/04 07:32:36;;;;;;;4.07;1.38;;;4.00;99.90;;;;;;10367188;28;20038;-52
2021/01/04 07:38:19;;;;;;;2.78;1.23;;;4.00;99.90;;;;;;10366969;28;20068;-53
2021/01/04 07:44:14;;;;;;;1.30;0.70;;;4.00;99.90;;;;;;10365472;28;20030;-53
2021/01/04 07:49:49;;;;;;;2.63;0.98;;;4.00;99.90;;;;;;10367079;28;20464;-53
2021/01/04 07:55:46;;;;;;;12.20;2.70;;;4.00;99.90;;;;;;10366001;28;20076;-53
2021/01/04 08:01:41;;;;;;;4.50;1.63;;;4.10;99.90;;;;;;10365853;28;20052;-53
2021/01/04 08:07:12;;;;;;;5.88;0.80;;;4.10;99.90;;;;;;10367358;28;20070;-52
2021/01/04 08:12:54;;;;;;;2.45;0.90;;;4.10;99.90;;;;;;10370948;28;20560;-53
2021/01/04 08:18:22;;;;;;;2.25;1.00;;;4.00;99.90;;;;;;10365762;28;20049;-52
2021/01/04 08:24:04;;;;;;;2.15;0.75;;;4.10;99.90;;;;;;10364705;28;20041;-52
2021/01/04 08:29:25;;;;;;;2.30;0.70;;;4.20;99.90;;;;;;10363566;28;20103;-52
2021/01/04 08:34:47;;;;;;;5.43;1.80;;;4.10;99.90;;;;;;10366334;28;20029;-52
2021/01/04 08:40:18;;;;;;;2.67;0.82;;;4.10;99.90;;;;;;10363978;28;20041;-52
2021/01/04 08:45:47;;;;;;;5.22;1.58;;;4.10;99.90;;;;;;10361036;28;20041;-53
2021/01/04 08:51:37;;;;;;;4.45;1.25;;;4.30;99.90;;;;;;10363423;28;20081;-53
2021/01/04 08:57:18;;;;;;;7.53;1.10;;;4.20;99.90;;;;;;10364580;28;20484;-52
2021/01/04 09:02:42;;;;;;;1.45;0.45;;;4.20;99.90;;;;;;10364100;28;20098;-52
2021/01/04 09:08:06;;;;;;;3.85;1.10;;;4.30;99.90;;;;;;10362890;28;20045;-52
2021/01/04 09:13:33;;;;;;;2.55;1.13;;;4.30;99.90;;;;;;10362494;28;20171;-52
2021/01/04 09:19:09;;;;;;;3.08;1.20;;;4.40;99.90;;;;;;10362981;28;20030;-52
2021/01/04 09:24:34;;;;;;;2.80;0.90;;;4.40;99.90;;;;;;10362478;28;20035;-52
2021/01/04 09:29:59;;;;;;;2.08;0.70;;;4.50;99.90;;;;;;10363728;28;20041;-53
2021/01/04 09:35:24;;;;;;;2.92;0.55;;;4.50;99.90;;;;;;10361160;28;20116;-52
2021/01/04 09:41:07;;;;;;;1.42;0.40;;;4.50;99.90;;;;;;10362092;28;20041;-52
2021/01/04 09:46:51;;;;;;;2.03;0.57;;;4.40;99.90;;;;;;10356889;28;20071;-52
2021/01/04 09:52:41;;;;;;;1.15;0.30;;;4.40;99.90;;;;;;10362518;28;20046;-52
2021/01/04 09:58:04;;;;;;;2.47;0.68;;;4.40;99.90;;;;;;10361195;28;20041;-52
2021/01/04 10:03:25;;;;;;;3.17;0.85;;;4.40;99.90;;;;;;10365266;28;20060;-52
2021/01/04 10:08:46;;;;;;;2.97;0.93;;;4.30;99.90;;;;;;10354315;28;20096;-52
2021/01/04 10:14:11;;;;;;;7.63;1.08;;;4.40;99.90;;;;;;10359016;28;20462;-53
2021/01/04 10:19:38;;;;;;;0.82;0.28;;;4.40;99.90;;;;;;10360413;28;20069;-52
2021/01/04 10:25:20;;;;;;;3.03;0.93;;;4.40;99.90;;;;;;10359757;28;20040;-52
2021/01/04 10:30:41;;;;;;;1.45;0.88;;;4.30;99.90;;;;;;10360097;28;20045;-52
2021/01/04 10:36:13;;;;;;;1.50;0.70;;;4.40;99.90;;;;;;10364714;28;20061;-52
2021/01/04 10:41:35;;;;;;;3.40;1.05;;;4.30;99.90;;;;;;10360890;28;22181;-52
2021/01/04 10:47:15;;;;;;;2.53;0.75;;;4.20;99.90;;;;;;10367504;28;20048;-53
2021/01/04 10:52:36;;;;;;;1.20;0.68;;;4.10;99.90;;;;;;10372617;28;20049;-52
2021/01/04 10:58:26;;;;;;;4.20;1.60;;;4.20;99.90;;;;;;10370088;28;20380;-52
2021/01/04 11:03:52;;;;;;;0.88;0.38;;;4.20;99.90;;;;;;10367520;28;20038;-52
2021/01/04 11:09:29;;;;;;;1.60;0.35;;;4.20;99.90;;;;;;10364750;28;20595;-52
2021/01/04 11:15:02;;;;;;;2.15;1.02;;;4.40;99.90;;;;;;10364776;28;20754;-52
2021/01/04 11:20:23;;;;;;;1.85;0.73;;;4.30;99.90;;;;;;10363335;28;20060;-53
2021/01/04 11:25:45;;;;;;;1.52;0.38;;;4.30;99.90;;;;;;10364507;28;20049;-53
2021/01/04 11:31:06;;;;;;;4.82;0.75;;;4.20;99.90;;;;;;10362151;28;20579;-52
2021/01/04 11:36:27;;;;;;;3.22;0.52;;;4.20;99.90;;;;;;10366815;28;20034;-52
2021/01/04 11:41:48;;;;;;;1.17;0.40;;;4.10;99.90;;;;;;10372538;28;20041;-52
2021/01/04 11:47:09;;;;;;;1.30;0.52;;;4.10;99.90;;;;;;10377372;28;20042;-52
2021/01/04 11:52:30;;;;;;;2.45;1.05;;;4.10;99.90;;;;;;10367104;28;20156;-53
2021/01/04 11:57:51;;;;;;;0.77;0.40;;;4.00;99.90;;;;;;10366360;28;20034;-52
2021/01/04 12:03:12;;;;;;;2.65;0.57;;;4.10;99.90;;;;;;10363259;28;20561;-52
2021/01/04 12:08:33;;;;;;;1.17;0.47;;;4.00;99.90;;;;;;10363851;28;20064;-52
2021/01/04 12:13:54;;;;;;;0.60;0.30;;;4.00;99.90;;;;;;10353168;28;20351;-52
2021/01/04 12:19:15;;;;;;;1.05;0.38;;;4.00;99.90;;;;;;10378452;28;20088;-52
2021/01/04 12:24:38;;;;;;;2.25;0.77;;;4.10;99.90;;;;;;10362624;28;20135;-52
2021/01/04 12:29:59;;;;;;;1.48;0.43;;;4.20;99.90;;;;;;10368472;28;20066;-52
2021/01/04 12:35:20;;;;;;;1.38;0.40;;;4.10;99.90;;;;;;10368372;28;20037;-53
2021/01/04 12:40:41;;;;;;;0.57;0.20;;;4.10;99.90;;;;;;10362655;28;20034;-53
2021/01/04 12:46:05;;;;;;;1.23;0.38;;;4.00;99.90;;;;;;10363784;28;20060;-52
2021/01/04 12:51:26;;;;;;;0.73;0.13;;;4.10;99.90;;;;;;10366281;28;20049;-52
2021/01/04 12:56:48;;;;;;;2.38;0.25;;;4.00;99.90;;;;;;10351606;28;20034;-53
2021/01/04 13:02:12;;;;;;;1.02;0.50;;;4.10;99.90;;;;;;10362221;28;20073;-52
2021/01/04 13:07:33;;;;;;;1.17;0.43;;;4.10;99.90;;;;;;10358519;28;20108;-52
2021/01/04 13:12:54;;;;;;;0.88;0.35;;;4.10;99.90;;;;;;10359269;28;20041;-52
2021/01/04 13:18:15;;;;;;;1.08;0.65;;;4.10;99.90;;;;;;10349673;28;20046;-52
2021/01/04 13:23:36;;;;;;;0.93;0.32;;;4.20;99.90;;;;;;10349909;28;20524;-52
2021/01/04 13:28:57;;;;;;;1.45;0.35;;;4.10;99.90;;;;;;10350937;28;20305;-52
2021/01/04 13:34:18;;;;;;;1.42;0.22;;;4.00;99.90;;;;;;10356881;28;20150;-52
2021/01/04 13:39:39;;;;;;;1.05;0.43;;;4.00;99.90;;;;;;10352958;28;20137;-52
2021/01/04 13:45:00;;;;;;;1.00;0.30;;;4.10;99.90;;;;;;10344203;28;20046;-52
2021/01/04 13:50:21;;;;;;;2.38;0.75;;;4.00;99.90;;;;;;10347844;28;20041;-52
2021/01/04 13:55:42;;;;;;;1.42;0.68;;;3.90;99.90;;;;;;10344720;28;20247;-52
2021/01/04 14:01:04;;;;;;;0.65;0.30;;;3.90;99.90;;;;;;10355245;28;20088;-52
2021/01/04 14:06:25;;;;;;;1.27;0.50;;;3.90;99.90;;;;;;10353944;28;20561;-52
2021/01/04 14:11:51;;;;;;;2.42;0.28;;;4.00;99.90;;;;;;10349406;28;20034;-52
2021/01/04 14:17:12;;;;;;;1.45;0.47;;;3.90;99.90;;;;;;10363152;28;20132;-52
2021/01/04 14:22:33;;;;;;;0.95;0.38;;;4.00;99.90;;;;;;10350705;28;20029;-52
2021/01/04 14:27:54;;;;;;;1.27;0.43;;;3.90;99.90;;;;;;10348783;28;20763;-52
2021/01/04 14:33:15;;;;;;;2.72;0.65;;;3.90;99.90;;;;;;10347636;28;20600;-52
2021/01/04 14:38:36;;;;;;;0.95;0.30;;;3.90;99.90;;;;;;10351289;28;20194;-52
2021/01/04 14:43:57;;;;;;;1.25;0.40;;;3.80;99.90;;;;;;10346948;28;20045;-52
2021/01/04 14:49:18;;;;;;;0.80;0.40;;;3.80;99.90;;;;;;10350680;28;20061;-52
2021/01/04 14:54:41;;;;;;;1.85;0.40;;;3.70;99.90;;;;;;10355882;28;20068;-52
2021/01/04 15:00:05;;;;;;;1.20;0.32;;;3.70;99.90;;;;;;10348114;28;20158;-52
2021/01/04 15:05:27;;;;;;;1.77;0.30;;;3.70;99.90;;;;;;10350149;28;20293;-52
2021/01/04 15:10:48;;;;;;;0.57;0.28;;;3.70;99.90;;;;;;10349124;28;20326;-52
2021/01/04 15:16:09;;;;;;;0.75;0.40;;;3.70;99.90;;;;;;10344350;28;20434;-52
2021/01/04 15:21:30;;;;;;;1.85;0.45;;;3.70;99.90;;;;;;10348674;28;20044;-52
2021/01/04 15:26:51;;;;;;;0.55;0.30;;;3.60;99.90;;;;;;10350752;28;21021;-52
2021/01/04 15:32:12;;;;;;;2.22;0.70;;;3.70;99.90;;;;;;10351256;28;20045;-52
2021/01/04 15:37:33;;;;;;;1.45;0.30;;;3.70;99.90;;;;;;10356944;28;20055;-52
2021/01/04 15:42:54;;;;;;;0.68;0.40;;;3.60;99.90;;;;;;10352371;28;20534;-52
2021/01/04 15:48:15;;;;;;;1.60;0.17;;;3.60;99.90;;;;;;10353587;28;20517;-52
2021/01/04 15:53:36;;;;;;;1.08;0.38;;;3.60;99.90;;;;;;10374152;28;20041;-52
2021/01/04 15:58:57;;;;;;;1.05;0.25;;;3.60;99.90;;;;;;10354768;28;20429;-52
2021/01/04 16:04:22;;;;;;;0.73;0.40;;;3.60;99.90;;;;;;10350984;28;20041;-52
2021/01/04 16:09:43;;;;;;;0.85;0.40;;;3.60;99.90;;;;;;10349996;28;20045;-52
2021/01/04 16:15:05;;;;;;;1.77;0.70;;;3.50;99.90;;;;;;10354620;28;20032;-52
2021/01/04 16:20:27;;;;;;;0.65;0.30;;;3.50;99.90;;;;;;10356695;28;20049;-52
2021/01/04 16:25:47;;;;;;;1.10;0.30;;;3.60;99.90;;;;;;10355302;28;20121;-52
2021/01/04 16:31:08;;;;;;;3.22;0.55;;;3.40;99.90;;;;;;10355342;28;20042;-52
2021/01/04 16:36:29;;;;;;;1.02;0.50;;;3.50;99.90;;;;;;10357836;28;20064;-52
2021/01/04 16:42:02;;;;;;;0.52;0.32;;;3.50;99.90;;;;;;10355778;28;20084;-52
2021/01/04 16:47:23;;;;;;;0.85;0.30;;;3.50;99.90;;;;;;10351377;28;20042;-52
2021/01/04 16:52:44;;;;;;;0.30;0.20;;;3.40;99.90;;;;;;10351314;28;20073;-52
2021/01/04 16:58:05;;;;;;;1.80;0.40;;;3.40;99.90;;;;;;10350152;28;20034;-52
2021/01/04 17:03:27;;;;;;;1.50;0.93;;;3.40;99.90;;;;;;10354273;28;20041;-52
2021/01/04 17:08:50;;;;;;;0.65;0.22;;;3.60;99.90;;;;;;10354300;28;20038;-52
2021/01/04 17:14:14;;;;;;;2.03;0.90;;;3.50;99.90;;;;;;10351578;28;20433;-52
2021/01/04 17:19:35;;;;;;;2.08;0.68;;;3.40;99.90;;;;;;10356434;28;20208;-52
2021/01/04 17:24:57;;;;;;;1.48;0.77;;;3.50;99.90;;;;;;10371367;28;20052;-52
2021/01/04 17:30:19;;;;;;;1.70;0.50;;;3.50;99.90;;;;;;10358906;28;20034;-52
2021/01/04 17:35:39;;;;;;;0.82;0.30;;;3.50;99.90;;;;;;10356662;28;20030;-52
2021/01/04 17:41:01;;;;;;;2.75;0.65;;;3.40;99.90;;;;;;10353973;28;20088;-52
2021/01/04 17:46:36;;;;;;;0.35;0.28;;;3.30;99.90;;;;;;10349920;28;20060;-52
2021/01/04 17:51:56;;;;;;;1.17;0.68;;;3.50;99.90;;;;;;10355149;28;20069;-52
2021/01/04 17:57:17;;;;;;;2.53;1.15;;;3.50;99.90;;;;;;10353942;28;20042;-52
2021/01/04 18:02:38;;;;;;;2.30;0.70;;;3.40;99.90;;;;;;10357327;28;20046;-52
2021/01/04 18:08:00;;;;;;;2.95;0.70;;;3.40;99.90;;;;;;10352997;28;20517;-52
2021/01/04 18:13:21;;;;;;;1.83;0.40;;;3.40;99.90;;;;;;10352699;28;20037;-52
2021/01/04 18:18:42;;;;;;;6.45;1.08;;;3.30;99.90;;;;;;10350033;28;20239;-52
2021/01/04 18:24:04;;;;;;;1.80;0.57;;;3.30;99.90;;;;;;10366542;28;20597;-52
2021/01/04 18:29:31;;;;;;;1.85;0.50;;;3.40;99.90;;;;;;10353866;28;20176;-52
2021/01/04 18:34:52;;;;;;;2.47;0.82;;;3.40;99.90;;;;;;10352737;28;20120;-52
2021/01/04 18:40:15;;;;;;;1.08;0.32;;;3.40;99.90;;;;;;10355052;28;20034;-52
2021/01/04 18:45:37;;;;;;;2.05;0.65;;;3.40;99.90;;;;;;10351520;28;20124;-52
2021/01/04 18:50:58;;;;;;;0.95;0.30;;;3.30;99.90;;;;;;10352569;28;20041;-52
2021/01/04 18:56:27;;;;;;;2.05;0.68;;;3.30;99.90;;;;;;10365011;28;20085;-52
2021/01/04 19:01:57;;;;;;;1.70;0.60;;;3.40;99.90;;;;;;10358437;28;20054;-52
2021/01/04 19:07:18;;;;;;;1.75;0.90;;;3.40;99.90;;;;;;10367384;28;20462;-52
2021/01/04 19:12:39;;;;;;;14.45;0.85;;;3.40;99.90;;;;;;10363422;28;20037;-52
2021/01/04 19:18:00;;;;;;;6.88;1.40;;;3.40;99.90;;;;;;10362754;28;20029;-52
2021/01/04 19:23:21;;;;;;;2.92;1.10;;;3.50;99.90;;;;;;10366237;28;20386;-52
2021/01/04 19:28:42;;;;;;;1.27;0.70;;;3.50;99.90;;;;;;10365069;28;20116;-52
2021/01/04 19:34:03;;;;;;;5.07;1.17;;;3.40;99.90;;;;;;10369748;28;20045;-52
2021/01/04 19:39:27;;;;;;;3.03;1.00;;;3.50;99.90;;;;;;10364005;28;20129;-52
2021/01/04 19:44:48;;;;;;;2.90;1.58;;;3.50;99.90;;;;;;10345785;28;20374;-52
2021/01/04 19:50:10;;;;;;;2.60;0.63;;;3.40;99.90;;;;;;10353876;28;20706;-52
2021/01/04 19:55:31;;;;;;;1.52;1.08;;;3.50;99.90;;;;;;10353699;28;20156;-52
2021/01/04 20:00:52;;;;;;;1.63;0.77;;;3.50;99.90;;;;;;10345913;28;20133;-52
2021/01/04 20:06:15;;;;;;;3.53;0.80;;;3.50;99.90;;;;;;10357243;28;20033;-52
2021/01/04 20:11:36;;;;;;;1.08;0.55;;;3.50;99.90;;;;;;10359361;28;20052;-52
2021/01/04 20:16:57;;;;;;;1.50;0.52;;;3.50;99.90;;;;;;10354932;28;20037;-52
2021/01/04 20:22:18;;;;;;;1.75;0.77;;;3.50;99.90;;;;;;10351607;28;20046;-52
2021/01/04 20:27:40;;;;;;;0.90;0.30;;;3.50;99.90;;;;;;10357617;28;20042;-52
2021/01/04 20:33:03;;;;;;;1.02;0.28;;;3.50;99.90;;;;;;10363185;28;20514;-52
2021/01/04 20:38:24;;;;;;;1.50;0.57;;;3.40;99.90;;;;;;10353950;28;20142;-52
2021/01/04 20:43:46;;;;;;;1.63;0.50;;;3.50;99.90;;;;;;10355157;28;20569;-52
2021/01/04 20:49:08;;;;;;;1.10;0.38;;;3.50;99.90;;;;;;10355353;28;20049;-52
2021/01/04 20:54:29;;;;;;;1.95;0.52;;;3.50;99.90;;;;;;10354875;28;20084;-52
2021/01/04 20:59:50;;;;;;;1.83;0.50;;;3.60;99.90;;;;;;10351172;28;20038;-52
2021/01/04 21:05:14;;;;;;;0.82;0.45;;;3.60;99.90;;;;;;10354593;28;20136;-52
2021/01/04 21:10:35;;;;;;;0.93;0.30;;;3.50;99.90;;;;;;10352570;28;20041;-52
2021/01/04 21:15:59;;;;;;;0.85;0.30;;;3.50;99.90;;;;;;10354761;28;20034;-52
2021/01/04 21:21:20;;;;;;;2.58;0.85;;;3.60;99.90;;;;;;10369786;28;20117;-52
2021/01/04 21:26:42;;;;;;;1.85;0.68;;;3.50;99.90;;;;;;10352954;28;20086;-52
2021/01/04 21:32:05;;;;;;;2.38;0.50;;;3.50;99.90;;;;;;10355572;28;20341;-52
2021/01/04 21:37:26;;;;;;;2.30;0.75;;;3.40;99.90;;;;;;10356124;28;20148;-52
2021/01/04 21:42:48;;;;;;;2.03;1.13;;;3.40;99.90;;;;;;10354552;28;20351;-52
2021/01/04 21:48:11;;;;;;;1.90;0.80;;;3.50;99.90;;;;;;10354828;28;20049;-52
2021/01/04 21:53:32;;;;;;;1.55;0.90;;;3.50;99.90;;;;;;10357186;28;20041;-52
2021/01/04 21:58:56;;;;;;;1.38;0.80;;;3.50;99.90;;;;;;10355479;28;20029;-52
2021/01/04 22:04:17;;;;;;;3.85;0.82;;;3.40;99.90;;;;;;10361846;28;20595;-52
2021/01/04 22:09:38;;;;;;;0.75;0.38;;;3.50;99.90;;;;;;10374935;28;20072;-52
2021/01/04 22:14:59;;;;;;;1.05;0.32;;;3.40;99.90;;;;;;10359811;28;20057;-52
2021/01/04 22:20:20;;;;;;;2.35;0.63;;;3.40;99.90;;;;;;10365858;28;20034;-52
2021/01/04 22:25:41;;;;;;;1.73;0.70;;;3.30;99.90;;;;;;10360949;28;20046;-52
2021/01/04 22:31:02;;;;;;;1.15;0.65;;;3.40;99.90;;;;;;10360619;28;20095;-52
2021/01/04 22:36:26;;;;;;;1.08;0.50;;;3.40;99.90;;;;;;10354604;28;20045;-52
2021/01/04 22:41:52;;;;;;;2.22;0.70;;;3.30;99.90;;;;;;10355356;28;20037;-52
2021/01/04 22:47:13;;;;;;;1.35;0.40;;;3.30;99.90;;;;;;10352979;28;20048;-52
2021/01/04 22:52:34;;;;;;;1.05;0.73;;;3.40;99.90;;;;;;10356487;28;20050;-52
2021/01/04 22:57:55;;;;;;;1.73;0.65;;;3.40;99.90;;;;;;10354114;28;20038;-52
2021/01/04 23:03:17;;;;;;;0.70;0.10;;;3.30;99.90;;;;;;10352333;28;20053;-52
2021/01/04 23:08:38;;;;;;;1.58;0.65;;;3.20;99.90;;;;;;10356755;28;20064;-52
2021/01/04 23:14:00;;;;;;;1.52;0.40;;;3.30;99.90;;;;;;10355758;28;22705;-52
2021/01/04 23:19:28;;;;;;;1.02;0.65;;;3.40;99.90;;;;;;10361161;28;20144;-52
2021/01/04 23:24:49;;;;;;;2.30;0.40;;;3.40;99.90;;;;;;10364034;28;20041;-52
2021/01/04 23:30:18;;;;;;;1.90;0.63;;;3.40;99.90;;;;;;10358115;28;20050;-52
2021/01/04 23:35:39;;;;;;;;;;;3.40;99.90;;;;;;10358617;28;20034;-52
2021/01/04 23:41:01;;;;;;;2.83;0.50;;;3.30;99.90;;;;;;10354052;28;19921;-52
2021/01/04 23:46:22;;;;;;;1.42;0.75;;;3.40;99.90;;;;;;10365858;28;20049;-52
2021/01/04 23:51:44;;;;;;;3.53;1.15;;;3.50;99.90;;;;;;10353699;28;20049;-52
2021/01/04 23:57:05;;;;;;;1.65;0.50;;;3.40;99.90;;;;;;10363805;28;20042;-52
